Terminal Aerodrome Forecast
Issued by NWS

Current Version | Previous Version | Graphics & Text | Print | Product List | Glossary On
Versions: 1 2 3 4 5 6 7 8 9 10 11 12 13 14 15 16 17 18 19 20 21 22 23 24 25 26 27 28
000
FTUS41 KILN 262255 AAC
TAFLCK
TAF AMD
KLCK 262255Z 2623/2718 24012KT P6SM VCTS BKN050CB
      TEMPO 2623/2701 2SM TSRA OVC025CB
     FM270200 02009KT P6SM BKN025=

USA.gov is the U.S. government's official web portal to all federal, state and local government web resources and services.